sensor_id;sensor_type;location;lat;lon;timestamp;pressure;altitude;pressure_sealevel;temperature;humidity
55466;BME280;41329;41.594;23.810;2023-02-18T00:01:01;96127.97;;;5.13;47.01
55466;BME280;41329;41.594;23.810;2023-02-18T00:03:27;96113.44;;;5.04;47.09
55466;BME280;41329;41.594;23.810;2023-02-18T00:05:53;96123.88;;;4.93;47.58
55466;BME280;41329;41.594;23.810;2023-02-18T00:08:20;96130.81;;;4.91;47.19
55466;BME280;41329;41.594;23.810;2023-02-18T00:10:46;96124.03;;;4.88;47.80
55466;BME280;41329;41.594;23.810;2023-02-18T00:13:11;96101.19;;;4.71;48.20
55466;BME280;41329;41.594;23.810;2023-02-18T00:15:37;96124.34;;;4.87;48.59
55466;BME280;41329;41.594;23.810;2023-02-18T00:18:04;96103.31;;;4.74;48.87
55466;BME280;41329;41.594;23.810;2023-02-18T00:20:29;96110.19;;;4.63;49.39
55466;BME280;41329;41.594;23.810;2023-02-18T00:22:55;96083.13;;;4.31;49.23
55466;BME280;41329;41.594;23.810;2023-02-18T00:25:20;96106.88;;;4.44;49.13
55466;BME280;41329;41.594;23.810;2023-02-18T00:27:46;96091.00;;;4.32;49.16
55466;BME280;41329;41.594;23.810;2023-02-18T00:30:11;96100.72;;;4.38;49.78
55466;BME280;41329;41.594;23.810;2023-02-18T00:32:37;96106.38;;;4.42;50.01
55466;BME280;41329;41.594;23.810;2023-02-18T00:35:03;96095.25;;;4.38;50.00
55466;BME280;41329;41.594;23.810;2023-02-18T00:37:28;96097.53;;;4.45;49.76
55466;BME280;41329;41.594;23.810;2023-02-18T00:39:54;96090.13;;;4.45;49.69
55466;BME280;41329;41.594;23.810;2023-02-18T00:42:19;96076.22;;;4.33;50.24
55466;BME280;41329;41.594;23.810;2023-02-18T00:44:44;96071.81;;;4.32;50.13
55466;BME280;41329;41.594;23.810;2023-02-18T00:47:10;96089.78;;;4.47;50.36
55466;BME280;41329;41.594;23.810;2023-02-18T00:49:35;96093.84;;;4.49;50.82
55466;BME280;41329;41.594;23.810;2023-02-18T00:52:01;96093.53;;;4.51;49.90
55466;BME280;41329;41.594;23.810;2023-02-18T00:54:26;96073.03;;;4.40;49.75
55466;BME280;41329;41.594;23.810;2023-02-18T00:56:52;96077.19;;;4.37;50.20
55466;BME280;41329;41.594;23.810;2023-02-18T00:59:17;96106.22;;;4.47;50.10
55466;BME280;41329;41.594;23.810;2023-02-18T01:01:42;96094.28;;;4.43;50.17
55466;BME280;41329;41.594;23.810;2023-02-18T01:04:08;96091.53;;;4.43;50.17
55466;BME280;41329;41.594;23.810;2023-02-18T01:06:34;96094.25;;;4.34;50.82
55466;BME280;41329;41.594;23.810;2023-02-18T01:08:59;96093.75;;;4.32;51.12
55466;BME280;41329;41.594;23.810;2023-02-18T01:11:25;96090.00;;;4.28;51.44
55466;BME280;41329;41.594;23.810;2023-02-18T01:13:50;96085.63;;;4.19;51.43
55466;BME280;41329;41.594;23.810;2023-02-18T01:16:16;96081.03;;;4.06;50.55
55466;BME280;41329;41.594;23.810;2023-02-18T01:18:42;96073.88;;;3.96;50.14
55466;BME280;41329;41.594;23.810;2023-02-18T01:21:08;96070.16;;;3.92;49.88
55466;BME280;41329;41.594;23.810;2023-02-18T01:23:35;96054.53;;;3.71;50.55
55466;BME280;41329;41.594;23.810;2023-02-18T01:26:00;96057.09;;;3.67;50.05
55466;BME280;41329;41.594;23.810;2023-02-18T01:28:26;96060.66;;;3.68;50.39
55466;BME280;41329;41.594;23.810;2023-02-18T01:30:52;96053.84;;;3.65;51.25
55466;BME280;41329;41.594;23.810;2023-02-18T01:33:19;96052.22;;;3.64;50.96
55466;BME280;41329;41.594;23.810;2023-02-18T01:35:44;96016.06;;;3.45;51.40
55466;BME280;41329;41.594;23.810;2023-02-18T01:38:10;96034.19;;;3.63;51.24
55466;BME280;41329;41.594;23.810;2023-02-18T01:40:42;96040.66;;;3.67;51.49
55466;BME280;41329;41.594;23.810;2023-02-18T01:43:10;96029.56;;;3.64;51.38
55466;BME280;41329;41.594;23.810;2023-02-18T01:45:41;96031.63;;;3.67;51.58
55466;BME280;41329;41.594;23.810;2023-02-18T01:50:41;96042.47;;;3.50;51.17
55466;BME280;41329;41.594;23.810;2023-02-18T01:53:07;96037.66;;;3.33;51.67
55466;BME280;41329;41.594;23.810;2023-02-18T01:55:34;96036.78;;;3.24;52.17
55466;BME280;41329;41.594;23.810;2023-02-18T01:58:01;96026.16;;;3.23;52.06
55466;BME280;41329;41.594;23.810;2023-02-18T02:00:27;96029.50;;;3.20;51.78
55466;BME280;41329;41.594;23.810;2023-02-18T02:02:53;96019.94;;;3.09;52.02
55466;BME280;41329;41.594;23.810;2023-02-18T02:05:20;96026.28;;;3.18;52.47
55466;BME280;41329;41.594;23.810;2023-02-18T02:07:47;96028.50;;;3.16;52.42
55466;BME280;41329;41.594;23.810;2023-02-18T02:10:16;96034.78;;;3.16;53.10
55466;BME280;41329;41.594;23.810;2023-02-18T02:24:15;96027.63;;;3.07;53.17
55466;BME280;41329;41.594;23.810;2023-02-18T02:35:31;96026.97;;;2.61;53.97
55466;BME280;41329;41.594;23.810;2023-02-18T02:38:04;96030.53;;;2.61;54.30
55466;BME280;41329;41.594;23.810;2023-02-18T02:41:09;96028.59;;;2.62;54.07
55466;BME280;41329;41.594;23.810;2023-02-18T02:43:51;95976.91;;;2.25;54.17
55466;BME280;41329;41.594;23.810;2023-02-18T02:46:35;96033.16;;;2.53;54.09
55466;BME280;41329;41.594;23.810;2023-02-18T02:54:40;96036.81;;;2.48;54.92
55466;BME280;41329;41.594;23.810;2023-02-18T02:57:40;96035.09;;;2.52;54.84
55466;BME280;41329;41.594;23.810;2023-02-18T03:00:07;96043.88;;;2.49;55.17
55466;BME280;41329;41.594;23.810;2023-02-18T03:08:40;96030.50;;;2.34;55.25
55466;BME280;41329;41.594;23.810;2023-02-18T03:11:12;96032.03;;;2.27;55.71
55466;BME280;41329;41.594;23.810;2023-02-18T03:14:11;96022.31;;;2.34;55.74
55466;BME280;41329;41.594;23.810;2023-02-18T03:16:45;96033.78;;;2.36;56.20
55466;BME280;41329;41.594;23.810;2023-02-18T03:21:55;96029.50;;;2.44;56.52
55466;BME280;41329;41.594;23.810;2023-02-18T03:24:29;96034.38;;;2.47;56.17
55466;BME280;41329;41.594;23.810;2023-02-18T03:27:08;96036.69;;;2.40;56.14
55466;BME280;41329;41.594;23.810;2023-02-18T03:29:35;96036.47;;;2.23;56.35
55466;BME280;41329;41.594;23.810;2023-02-18T03:32:04;96031.63;;;2.33;56.15
55466;BME280;41329;41.594;23.810;2023-02-18T03:34:34;96033.47;;;2.38;55.66
55466;BME280;41329;41.594;23.810;2023-02-18T03:37:01;96023.75;;;2.32;55.54
55466;BME280;41329;41.594;23.810;2023-02-18T03:39:29;96028.59;;;2.35;56.21
55466;BME280;41329;41.594;23.810;2023-02-18T03:41:55;96036.41;;;2.41;56.14
55466;BME280;41329;41.594;23.810;2023-02-18T03:44:23;96024.84;;;2.17;56.38
55466;BME280;41329;41.594;23.810;2023-02-18T03:46:49;96013.72;;;2.14;56.49
55466;BME280;41329;41.594;23.810;2023-02-18T03:49:15;96026.16;;;2.20;56.88
55466;BME280;41329;41.594;23.810;2023-02-18T03:51:40;96015.94;;;2.12;56.69
55466;BME280;41329;41.594;23.810;2023-02-18T03:54:06;96019.69;;;2.16;56.74
55466;BME280;41329;41.594;23.810;2023-02-18T03:56:33;96035.88;;;2.26;56.90
55466;BME280;41329;41.594;23.810;2023-02-18T03:58:59;96030.44;;;2.26;57.10
55466;BME280;41329;41.594;23.810;2023-02-18T04:01:24;96023.03;;;2.26;56.44
55466;BME280;41329;41.594;23.810;2023-02-18T04:03:50;96017.06;;;2.24;56.12
55466;BME280;41329;41.594;23.810;2023-02-18T04:06:15;96026.28;;;2.28;55.87
55466;BME280;41329;41.594;23.810;2023-02-18T04:08:41;96030.13;;;2.27;56.39
55466;BME280;41329;41.594;23.810;2023-02-18T04:11:06;96028.78;;;2.25;55.98
55466;BME280;41329;41.594;23.810;2023-02-18T04:13:32;96021.41;;;2.12;56.48
55466;BME280;41329;41.594;23.810;2023-02-18T04:15:57;96022.72;;;2.14;56.70
55466;BME280;41329;41.594;23.810;2023-02-18T04:18:23;96024.34;;;2.15;56.84
55466;BME280;41329;41.594;23.810;2023-02-18T04:20:48;96018.16;;;1.96;56.41
55466;BME280;41329;41.594;23.810;2023-02-18T04:23:14;96014.09;;;1.94;56.02
55466;BME280;41329;41.594;23.810;2023-02-18T04:25:39;96020.38;;;1.94;55.83
55466;BME280;41329;41.594;23.810;2023-02-18T04:28:05;96018.34;;;1.86;56.00
55466;BME280;41329;41.594;23.810;2023-02-18T04:30:31;96019.66;;;1.89;55.94
55466;BME280;41329;41.594;23.810;2023-02-18T04:32:57;96025.72;;;1.86;55.83
55466;BME280;41329;41.594;23.810;2023-02-18T04:35:22;96013.53;;;1.65;55.86
55466;BME280;41329;41.594;23.810;2023-02-18T04:37:48;96030.66;;;1.52;56.23
55466;BME280;41329;41.594;23.810;2023-02-18T04:40:14;96011.97;;;1.45;55.98
55466;BME280;41329;41.594;23.810;2023-02-18T04:42:39;96020.97;;;1.46;56.28
55466;BME280;41329;41.594;23.810;2023-02-18T04:45:05;96026.72;;;1.44;56.31
55466;BME280;41329;41.594;23.810;2023-02-18T04:47:31;96023.56;;;1.19;56.66
55466;BME280;41329;41.594;23.810;2023-02-18T04:49:56;96050.81;;;1.19;56.85
55466;BME280;41329;41.594;23.810;2023-02-18T04:52:21;96023.56;;;1.00;57.51
55466;BME280;41329;41.594;23.810;2023-02-18T04:54:47;96042.72;;;1.14;57.87
55466;BME280;41329;41.594;23.810;2023-02-18T04:57:12;96026.28;;;1.00;57.96
55466;BME280;41329;41.594;23.810;2023-02-18T04:59:38;96036.69;;;0.98;58.21
55466;BME280;41329;41.594;23.810;2023-02-18T05:02:04;96051.44;;;0.97;58.54
55466;BME280;41329;41.594;23.810;2023-02-18T05:04:30;96053.25;;;1.02;59.00
55466;BME280;41329;41.594;23.810;2023-02-18T05:06:55;96036.47;;;0.95;59.14
55466;BME280;41329;41.594;23.810;2023-02-18T05:09:21;96056.72;;;1.07;59.31
55466;BME280;41329;41.594;23.810;2023-02-18T05:11:46;96042.06;;;1.03;59.59
55466;BME280;41329;41.594;23.810;2023-02-18T05:14:12;96062.38;;;1.11;59.58
55466;BME280;41329;41.594;23.810;2023-02-18T05:16:38;96062.63;;;1.14;59.50
55466;BME280;41329;41.594;23.810;2023-02-18T05:19:04;96060.41;;;1.16;59.55
55466;BME280;41329;41.594;23.810;2023-02-18T05:21:30;96059.53;;;1.21;59.78
55466;BME280;41329;41.594;23.810;2023-02-18T05:23:56;96072.50;;;1.29;59.32
55466;BME280;41329;41.594;23.810;2023-02-18T05:26:21;96080.06;;;1.32;59.18
55466;BME280;41329;41.594;23.810;2023-02-18T05:28:47;96078.28;;;1.41;59.35
55466;BME280;41329;41.594;23.810;2023-02-18T05:31:12;96057.47;;;1.31;59.15
55466;BME280;41329;41.594;23.810;2023-02-18T05:33:38;96061.78;;;1.32;59.32
55466;BME280;41329;41.594;23.810;2023-02-18T05:36:03;96085.78;;;1.49;59.57
55466;BME280;41329;41.594;23.810;2023-02-18T05:38:29;96069.97;;;1.51;59.67
55466;BME280;41329;41.594;23.810;2023-02-18T05:40:54;96061.63;;;1.42;59.79
55466;BME280;41329;41.594;23.810;2023-02-18T05:43:20;96068.75;;;1.57;59.77
55466;BME280;41329;41.594;23.810;2023-02-18T05:45:46;96062.22;;;1.58;60.12
55466;BME280;41329;41.594;23.810;2023-02-18T05:48:11;96083.56;;;1.69;60.11
55466;BME280;41329;41.594;23.810;2023-02-18T05:50:37;96075.47;;;1.64;59.94
55466;BME280;41329;41.594;23.810;2023-02-18T05:53:03;96085.63;;;1.77;59.20
55466;BME280;41329;41.594;23.810;2023-02-18T05:55:28;96067.41;;;1.73;59.42
55466;BME280;41329;41.594;23.810;2023-02-18T05:57:53;96060.03;;;1.73;59.60
55466;BME280;41329;41.594;23.810;2023-02-18T06:00:19;96074.31;;;1.84;59.58
55466;BME280;41329;41.594;23.810;2023-02-18T06:02:45;96091.91;;;1.91;59.27
55466;BME280;41329;41.594;23.810;2023-02-18T06:05:10;96088.84;;;1.79;58.78
55466;BME280;41329;41.594;23.810;2023-02-18T06:07:36;96078.50;;;1.44;58.55
55466;BME280;41329;41.594;23.810;2023-02-18T06:10:02;96081.75;;;1.46;58.02
55466;BME280;41329;41.594;23.810;2023-02-18T06:12:27;96101.56;;;1.52;57.91
55466;BME280;41329;41.594;23.810;2023-02-18T06:14:53;96079.38;;;1.40;58.58
55466;BME280;41329;41.594;23.810;2023-02-18T06:17:19;96097.06;;;1.42;58.50
55466;BME280;41329;41.594;23.810;2023-02-18T06:19:47;96109.00;;;1.46;59.12
55466;BME280;41329;41.594;23.810;2023-02-18T06:22:12;96109.00;;;1.46;59.97
55466;BME280;41329;41.594;23.810;2023-02-18T06:24:38;96102.59;;;1.56;60.30
55466;BME280;41329;41.594;23.810;2023-02-18T06:27:03;96098.25;;;1.55;60.79
55466;BME280;41329;41.594;23.810;2023-02-18T06:29:29;96100.97;;;1.55;60.83
55466;BME280;41329;41.594;23.810;2023-02-18T06:31:56;96102.69;;;1.51;61.37
55466;BME280;41329;41.594;23.810;2023-02-18T06:34:22;96103.63;;;1.60;61.68
55466;BME280;41329;41.594;23.810;2023-02-18T06:36:47;96111.50;;;1.80;61.69
55466;BME280;41329;41.594;23.810;2023-02-18T06:39:12;96104.97;;;1.94;61.52
55466;BME280;41329;41.594;23.810;2023-02-18T06:41:38;96096.41;;;2.01;61.55
55466;BME280;41329;41.594;23.810;2023-02-18T06:44:04;96102.50;;;2.11;61.21
55466;BME280;41329;41.594;23.810;2023-02-18T06:46:30;96097.63;;;2.08;61.34
55466;BME280;41329;41.594;23.810;2023-02-18T06:48:55;96099.97;;;2.15;61.18
55466;BME280;41329;41.594;23.810;2023-02-18T06:51:21;96103.22;;;2.17;60.93
55466;BME280;41329;41.594;23.810;2023-02-18T06:53:46;96092.59;;;2.15;61.25
55466;BME280;41329;41.594;23.810;2023-02-18T06:56:11;96099.47;;;2.26;61.53
55466;BME280;41329;41.594;23.810;2023-02-18T06:58:37;96089.69;;;2.39;61.79
55466;BME280;41329;41.594;23.810;2023-02-18T07:01:03;96093.25;;;2.53;61.68
55466;BME280;41329;41.594;23.810;2023-02-18T07:03:29;96083.22;;;2.62;61.73
55466;BME280;41329;41.594;23.810;2023-02-18T07:05:54;96087.88;;;2.75;61.64
55466;BME280;41329;41.594;23.810;2023-02-18T07:08:20;96075.03;;;2.62;61.47
55466;BME280;41329;41.594;23.810;2023-02-18T07:10:46;96086.56;;;2.72;61.21
55466;BME280;41329;41.594;23.810;2023-02-18T07:13:12;96084.44;;;2.83;60.85
55466;BME280;41329;41.594;23.810;2023-02-18T07:15:38;96090.13;;;2.86;61.19
55466;BME280;41329;41.594;23.810;2023-02-18T07:18:04;96083.53;;;3.01;60.98
55466;BME280;41329;41.594;23.810;2023-02-18T07:20:29;96088.28;;;2.95;61.16
55466;BME280;41329;41.594;23.810;2023-02-18T07:22:55;96102.44;;;2.97;61.09
55466;BME280;41329;41.594;23.810;2023-02-18T07:25:21;96107.53;;;2.90;61.24
55466;BME280;41329;41.594;23.810;2023-02-18T07:27:46;96100.41;;;2.89;61.51
55466;BME280;41329;41.594;23.810;2023-02-18T07:30:12;96084.97;;;2.85;61.74
55466;BME280;41329;41.594;23.810;2023-02-18T07:32:38;96108.53;;;2.94;61.88
55466;BME280;41329;41.594;23.810;2023-02-18T07:35:05;96109.81;;;3.10;63.12
55466;BME280;41329;41.594;23.810;2023-02-18T07:37:30;96091.25;;;3.34;63.41
55466;BME280;41329;41.594;23.810;2023-02-18T07:39:56;96099.38;;;3.61;63.61
55466;BME280;41329;41.594;23.810;2023-02-18T07:42:21;96090.94;;;3.71;62.15
55466;BME280;41329;41.594;23.810;2023-02-18T07:44:47;96095.16;;;3.77;60.79
55466;BME280;41329;41.594;23.810;2023-02-18T07:47:14;96080.59;;;3.90;61.13
55466;BME280;41329;41.594;23.810;2023-02-18T07:49:42;96084.22;;;3.99;60.60
55466;BME280;41329;41.594;23.810;2023-02-18T07:52:07;96096.03;;;4.08;60.12
55466;BME280;41329;41.594;23.810;2023-02-18T07:54:33;96082.97;;;4.05;60.14
55466;BME280;41329;41.594;23.810;2023-02-18T07:56:59;96077.75;;;4.26;60.37
55466;BME280;41329;41.594;23.810;2023-02-18T07:59:25;96066.56;;;4.36;60.97
55466;BME280;41329;41.594;23.810;2023-02-18T08:01:50;96063.78;;;4.66;61.73
55466;BME280;41329;41.594;23.810;2023-02-18T08:04:16;96073.06;;;4.87;60.14
55466;BME280;41329;41.594;23.810;2023-02-18T08:06:43;96058.50;;;4.78;59.72
55466;BME280;41329;41.594;23.810;2023-02-18T08:09:13;96070.47;;;4.91;60.26
55466;BME280;41329;41.594;23.810;2023-02-18T08:11:39;96047.41;;;4.83;59.83
55466;BME280;41329;41.594;23.810;2023-02-18T08:14:05;96034.88;;;5.08;60.94
55466;BME280;41329;41.594;23.810;2023-02-18T08:16:30;96054.78;;;5.47;60.98
55466;BME280;41329;41.594;23.810;2023-02-18T08:18:56;96047.50;;;5.77;58.83
55466;BME280;41329;41.594;23.810;2023-02-18T08:21:24;96035.91;;;5.88;56.43
55466;BME280;41329;41.594;23.810;2023-02-18T08:23:50;96024.09;;;5.88;55.82
55466;BME280;41329;41.594;23.810;2023-02-18T08:26:16;96031.19;;;6.06;56.06
55466;BME280;41329;41.594;23.810;2023-02-18T08:28:43;96035.34;;;6.29;56.97
55466;BME280;41329;41.594;23.810;2023-02-18T08:31:16;96045.59;;;6.57;54.34
55466;BME280;41329;41.594;23.810;2023-02-18T08:33:42;96031.66;;;6.63;54.03
55466;BME280;41329;41.594;23.810;2023-02-18T08:36:08;96029.47;;;6.39;53.35
55466;BME280;41329;41.594;23.810;2023-02-18T08:38:35;96037.41;;;6.32;54.07
55466;BME280;41329;41.594;23.810;2023-02-18T08:41:04;96036.94;;;6.30;54.77
55466;BME280;41329;41.594;23.810;2023-02-18T08:43:30;96029.63;;;6.42;53.77
55466;BME280;41329;41.594;23.810;2023-02-18T08:45:56;96037.53;;;6.53;53.72
55466;BME280;41329;41.594;23.810;2023-02-18T08:48:22;96029.28;;;6.53;53.14
55466;BME280;41329;41.594;23.810;2023-02-18T08:50:47;96030.56;;;6.46;52.76
55466;BME280;41329;41.594;23.810;2023-02-18T08:53:13;96019.19;;;6.27;52.97
55466;BME280;41329;41.594;23.810;2023-02-18T08:55:40;96020.66;;;6.16;53.10
55466;BME280;41329;41.594;23.810;2023-02-18T08:58:05;96030.34;;;6.22;53.63
55466;BME280;41329;41.594;23.810;2023-02-18T09:00:31;95993.91;;;5.96;53.58
55466;BME280;41329;41.594;23.810;2023-02-18T09:02:57;96023.25;;;6.04;54.65
55466;BME280;41329;41.594;23.810;2023-02-18T09:05:23;96023.06;;;6.26;54.82
55466;BME280;41329;41.594;23.810;2023-02-18T09:07:48;96013.28;;;6.46;54.72
55466;BME280;41329;41.594;23.810;2023-02-18T09:10:15;96009.81;;;6.66;54.89
55466;BME280;41329;41.594;23.810;2023-02-18T09:12:40;96010.06;;;6.82;54.37
55466;BME280;41329;41.594;23.810;2023-02-18T09:15:06;96007.47;;;7.06;54.12
55466;BME280;41329;41.594;23.810;2023-02-18T09:17:32;96005.97;;;7.17;53.58
55466;BME280;41329;41.594;23.810;2023-02-18T09:19:58;96005.91;;;7.25;53.23
55466;BME280;41329;41.594;23.810;2023-02-18T09:22:23;96003.38;;;7.41;53.12
55466;BME280;41329;41.594;23.810;2023-02-18T09:24:49;95983.50;;;7.35;52.23
55466;BME280;41329;41.594;23.810;2023-02-18T09:27:14;96001.97;;;7.55;52.33
55466;BME280;41329;41.594;23.810;2023-02-18T09:29:40;95986.09;;;7.52;51.38
55466;BME280;41329;41.594;23.810;2023-02-18T09:32:07;95981.31;;;7.61;50.99
55466;BME280;41329;41.594;23.810;2023-02-18T09:34:34;95977.38;;;7.71;50.98
55466;BME280;41329;41.594;23.810;2023-02-18T09:37:00;95979.69;;;7.81;51.02
55466;BME280;41329;41.594;23.810;2023-02-18T09:39:26;95967.72;;;7.97;50.99
55466;BME280;41329;41.594;23.810;2023-02-18T09:41:57;95965.38;;;8.20;50.53
55466;BME280;41329;41.594;23.810;2023-02-18T09:44:29;95969.06;;;8.36;50.10
55466;BME280;41329;41.594;23.810;2023-02-18T09:47:14;95965.69;;;8.63;49.51
55466;BME280;41329;41.594;23.810;2023-02-18T09:49:53;95960.63;;;8.77;48.61
55466;BME280;41329;41.594;23.810;2023-02-18T09:52:25;95975.78;;;9.07;48.10
55466;BME280;41329;41.594;23.810;2023-02-18T09:54:52;95957.03;;;9.12;46.44
55466;BME280;41329;41.594;23.810;2023-02-18T09:57:28;95961.84;;;9.27;45.29
55466;BME280;41329;41.594;23.810;2023-02-18T10:00:00;95968.72;;;9.33;46.68
55466;BME280;41329;41.594;23.810;2023-02-18T10:02:29;95949.38;;;9.45;47.84
55466;BME280;41329;41.594;23.810;2023-02-18T10:04:56;95950.09;;;9.70;47.26
55466;BME280;41329;41.594;23.810;2023-02-18T10:07:30;95938.03;;;9.90;47.19
55466;BME280;41329;41.594;23.810;2023-02-18T10:09:58;95923.25;;;9.98;46.44
55466;BME280;41329;41.594;23.810;2023-02-18T10:12:25;95944.41;;;10.33;46.05
55466;BME280;41329;41.594;23.810;2023-02-18T10:14:54;95945.75;;;10.55;44.84
55466;BME280;41329;41.594;23.810;2023-02-18T10:17:22;95958.50;;;10.75;44.41
55466;BME280;41329;41.594;23.810;2023-02-18T10:19:50;95947.81;;;10.89;44.09
55466;BME280;41329;41.594;23.810;2023-02-18T10:22:17;95936.53;;;10.97;43.93
55466;BME280;41329;41.594;23.810;2023-02-18T10:24:47;95950.47;;;11.01;42.50
55466;BME280;41329;41.594;23.810;2023-02-18T10:27:26;95891.00;;;10.79;43.87
55466;BME280;41329;41.594;23.810;2023-02-18T10:29:54;95921.75;;;11.24;45.43
55466;BME280;41329;41.594;23.810;2023-02-18T10:32:26;95917.09;;;11.47;44.88
55466;BME280;41329;41.594;23.810;2023-02-18T10:34:58;95912.38;;;11.67;43.26
55466;BME280;41329;41.594;23.810;2023-02-18T10:40:41;95893.63;;;11.98;42.21
55466;BME280;41329;41.594;23.810;2023-02-18T10:46:06;95892.63;;;12.29;42.99
55466;BME280;41329;41.594;23.810;2023-02-18T10:48:37;95873.63;;;12.53;41.90
55466;BME280;41329;41.594;23.810;2023-02-18T10:51:20;95878.63;;;12.93;39.98
55466;BME280;41329;41.594;23.810;2023-02-18T10:53:48;95873.91;;;13.20;39.94
55466;BME280;41329;41.594;23.810;2023-02-18T10:56:37;95865.59;;;13.49;39.64
55466;BME280;41329;41.594;23.810;2023-02-18T10:59:19;95848.69;;;13.61;37.36
55466;BME280;41329;41.594;23.810;2023-02-18T11:01:55;95831.59;;;13.63;36.54
55466;BME280;41329;41.594;23.810;2023-02-18T11:04:27;95845.25;;;13.75;36.70
55466;BME280;41329;41.594;23.810;2023-02-18T11:07:03;95849.66;;;13.76;36.28
55466;BME280;41329;41.594;23.810;2023-02-18T11:09:40;95850.44;;;13.76;33.91
55466;BME280;41329;41.594;23.810;2023-02-18T11:12:15;95853.97;;;13.73;34.89
55466;BME280;41329;41.594;23.810;2023-02-18T11:14:46;95850.41;;;13.73;34.83
55466;BME280;41329;41.594;23.810;2023-02-18T11:17:40;95848.97;;;13.86;36.10
55466;BME280;41329;41.594;23.810;2023-02-18T11:22:46;95846.41;;;14.07;36.41
55466;BME280;41329;41.594;23.810;2023-02-18T11:25:29;95821.38;;;14.07;34.26
55466;BME280;41329;41.594;23.810;2023-02-18T11:30:46;95820.69;;;14.60;34.21
55466;BME280;41329;41.594;23.810;2023-02-18T11:33:23;95818.50;;;14.83;32.47
55466;BME280;41329;41.594;23.810;2023-02-18T11:35:53;95825.66;;;14.81;32.27
55466;BME280;41329;41.594;23.810;2023-02-18T11:38:34;95808.50;;;14.75;32.35
55466;BME280;41329;41.594;23.810;2023-02-18T11:41:13;95814.22;;;14.96;31.52
55466;BME280;41329;41.594;23.810;2023-02-18T11:43:41;95798.78;;;15.09;34.43
55466;BME280;41329;41.594;23.810;2023-02-18T11:46:17;95800.97;;;15.44;33.50
55466;BME280;41329;41.594;23.810;2023-02-18T11:48:44;95796.66;;;15.60;31.00
55466;BME280;41329;41.594;23.810;2023-02-18T11:51:29;95790.75;;;15.79;30.47
55466;BME280;41329;41.594;23.810;2023-02-18T11:54:18;95782.00;;;15.88;31.68
55466;BME280;41329;41.594;23.810;2023-02-18T11:56:54;95781.63;;;15.96;29.74
55466;BME280;41329;41.594;23.810;2023-02-18T11:59:20;95774.06;;;16.00;29.15
55466;BME280;41329;41.594;23.810;2023-02-18T12:01:50;95753.72;;;16.03;29.71
55466;BME280;41329;41.594;23.810;2023-02-18T12:04:18;95769.31;;;16.32;30.66
55466;BME280;41329;41.594;23.810;2023-02-18T12:06:51;95748.16;;;16.35;28.20
55466;BME280;41329;41.594;23.810;2023-02-18T12:09:41;95752.59;;;16.43;28.95
55466;BME280;41329;41.594;23.810;2023-02-18T12:12:29;95761.75;;;16.36;27.44
55466;BME280;41329;41.594;23.810;2023-02-18T12:14:58;95753.81;;;16.42;27.84
55466;BME280;41329;41.594;23.810;2023-02-18T12:23:05;95693.94;;;16.08;27.00
55466;BME280;41329;41.594;23.810;2023-02-18T12:39:15;95723.03;;;16.91;27.23
55466;BME280;41329;41.594;23.810;2023-02-18T12:44:53;95722.19;;;16.94;27.00
55466;BME280;41329;41.594;23.810;2023-02-18T13:06:15;95680.91;;;17.36;26.55
55466;BME280;41329;41.594;23.810;2023-02-18T13:14:19;95689.16;;;17.71;26.33
55466;BME280;41329;41.594;23.810;2023-02-18T13:16:51;95652.34;;;17.73;25.30
55466;BME280;41329;41.594;23.810;2023-02-18T13:21:53;95670.47;;;18.13;25.79
55466;BME280;41329;41.594;23.810;2023-02-18T13:29:56;95668.63;;;17.92;24.98
55466;BME280;41329;41.594;23.810;2023-02-18T13:32:35;95662.56;;;18.04;25.37
55466;BME280;41329;41.594;23.810;2023-02-18T13:40:37;95669.13;;;18.75;25.38
55466;BME280;41329;41.594;23.810;2023-02-18T13:43:28;95653.81;;;18.87;25.33
55466;BME280;41329;41.594;23.810;2023-02-18T13:48:38;95663.38;;;19.23;25.90
55466;BME280;41329;41.594;23.810;2023-02-18T13:51:05;95658.94;;;19.29;23.49
55466;BME280;41329;41.594;23.810;2023-02-18T13:53:39;95663.22;;;19.40;25.13
55466;BME280;41329;41.594;23.810;2023-02-18T13:58:49;95647.47;;;19.46;23.48
55466;BME280;41329;41.594;23.810;2023-02-18T14:03:52;95655.78;;;19.83;25.49
55466;BME280;41329;41.594;23.810;2023-02-18T14:06:29;95667.38;;;20.15;23.83
55466;BME280;41329;41.594;23.810;2023-02-18T14:11:57;95666.25;;;20.59;24.17
55466;BME280;41329;41.594;23.810;2023-02-18T14:14:39;95665.69;;;20.67;22.96
55466;BME280;41329;41.594;23.810;2023-02-18T14:19:52;95638.78;;;20.66;23.00
55466;BME280;41329;41.594;23.810;2023-02-18T14:22:43;95645.59;;;20.92;23.45
55466;BME280;41329;41.594;23.810;2023-02-18T14:27:37;95632.09;;;21.03;21.51
55466;BME280;41329;41.594;23.810;2023-02-18T14:30:15;95637.56;;;20.90;22.02
55466;BME280;41329;41.594;23.810;2023-02-18T14:32:43;95629.09;;;20.71;22.26
55466;BME280;41329;41.594;23.810;2023-02-18T14:46:50;95628.41;;;22.00;22.93
55466;BME280;41329;41.594;23.810;2023-02-18T14:51:46;95627.44;;;22.86;20.66
55466;BME280;41329;41.594;23.810;2023-02-18T14:54:16;95627.41;;;23.02;20.21
55466;BME280;41329;41.594;23.810;2023-02-18T14:57:05;95620.41;;;22.78;20.10
55466;BME280;41329;41.594;23.810;2023-02-18T14:59:38;95634.34;;;22.53;20.18
55466;BME280;41329;41.594;23.810;2023-02-18T15:02:25;95624.31;;;22.52;20.61
55466;BME280;41329;41.594;23.810;2023-02-18T15:04:52;95636.19;;;22.76;20.87
55466;BME280;41329;41.594;23.810;2023-02-18T15:07:20;95630.13;;;22.61;20.06
55466;BME280;41329;41.594;23.810;2023-02-18T15:09:52;95627.81;;;22.40;20.54
55466;BME280;41329;41.594;23.810;2023-02-18T15:12:20;95622.19;;;22.24;20.66
55466;BME280;41329;41.594;23.810;2023-02-18T15:14:49;95619.53;;;22.17;21.50
55466;BME280;41329;41.594;23.810;2023-02-18T15:17:19;95613.94;;;22.49;21.12
55466;BME280;41329;41.594;23.810;2023-02-18T15:19:51;95624.41;;;22.49;19.86
55466;BME280;41329;41.594;23.810;2023-02-18T15:22:19;95615.91;;;22.01;20.20
55466;BME280;41329;41.594;23.810;2023-02-18T15:24:45;95620.81;;;21.42;20.48